Time;durP1;ratioP1;P1;durP2;ratioP2;P2;SDS_P1;SDS_P2;PMS_P1;PMS_P2;Temp;Humidity;BMP_temperature;BMP_pressure;BME280_temperature;BME280_humidity;BME280_pressure;Samples;Min_cycle;Max_cycle;Signal;HPM_P1;HPM_P2
2023/02/20 00:00:27;;;;;;;5.23;2.97;;;14.00;56.60;;;;;;5030325;28;20281;-48
2023/02/20 00:02:53;;;;;;;9.13;3.77;;;14.00;56.60;;;;;;5030164;28;20221;-48
2023/02/20 00:05:20;;;;;;;5.50;2.90;;;13.70;57.00;;;;;;5030217;28;20954;-48
2023/02/20 00:07:46;;;;;;;10.63;3.30;;;13.90;57.00;;;;;;5030348;28;20203;-49
2023/02/20 00:10:12;;;;;;;3.60;2.90;;;14.10;56.60;;;;;;5030391;28;20507;-48
2023/02/20 00:12:38;;;;;;;4.93;3.27;;;14.10;56.40;;;;;;5028366;28;20475;-48
2023/02/20 00:15:04;;;;;;;4.10;2.90;;;14.20;56.40;;;;;;5030368;28;20789;-49
2023/02/20 00:17:30;;;;;;;4.07;3.10;;;14.20;56.40;;;;;;5028896;28;20790;-48
2023/02/20 00:19:55;;;;;;;5.27;3.30;;;14.40;56.40;;;;;;5030137;28;20430;-50
2023/02/20 00:22:21;;;;;;;4.80;2.80;;;14.40;55.70;;;;;;5029793;28;20193;-49
2023/02/20 00:24:47;;;;;;;4.03;2.50;;;14.40;55.70;;;;;;5030116;28;20209;-48
2023/02/20 00:27:13;;;;;;;4.63;2.87;;;14.30;55.70;;;;;;5030052;28;20826;-48
2023/02/20 00:29:39;;;;;;;4.63;3.20;;;14.30;55.80;;;;;;5030010;28;20432;-50
2023/02/20 00:32:04;;;;;;;6.03;3.00;;;14.40;55.80;;;;;;5029587;28;20244;-48
2023/02/20 00:34:30;;;;;;;7.20;3.40;;;14.40;55.60;;;;;;5040744;28;20193;-48
2023/02/20 00:36:56;;;;;;;3.80;2.60;;;14.50;55.40;;;;;;5029915;28;20200;-48
2023/02/20 00:39:22;;;;;;;4.67;3.00;;;14.50;55.40;;;;;;5028346;28;20431;-49
2023/02/20 00:41:48;;;;;;;7.13;2.80;;;14.60;55.30;;;;;;5029502;28;20233;-48
2023/02/20 00:44:14;;;;;;;6.57;3.17;;;14.60;55.20;;;;;;5029507;28;20900;-49
2023/02/20 00:46:40;;;;;;;4.83;2.63;;;14.60;55.20;;;;;;5029607;28;20200;-48
2023/02/20 00:49:05;;;;;;;4.50;3.00;;;14.50;55.30;;;;;;5029776;28;20420;-49
2023/02/20 00:51:32;;;;;;;5.10;2.57;;;14.40;55.50;;;;;;5029579;28;20267;-50
2023/02/20 00:53:58;;;;;;;4.70;3.07;;;14.50;55.40;;;;;;5029649;28;20197;-48
2023/02/20 00:56:24;;;;;;;8.03;4.07;;;14.60;55.30;;;;;;5029846;28;20788;-49
2023/02/20 00:58:49;;;;;;;5.70;2.90;;;14.50;55.30;;;;;;5029544;28;20427;-48
2023/02/20 01:01:15;;;;;;;6.00;2.47;;;14.50;55.20;;;;;;5029438;28;20359;-49
2023/02/20 01:03:42;;;;;;;5.27;3.10;;;14.60;55.20;;;;;;5029331;28;20204;-48
2023/02/20 01:06:08;;;;;;;6.17;2.90;;;14.60;55.10;;;;;;5031901;28;20250;-49
2023/02/20 01:08:34;;;;;;;4.87;2.70;;;14.60;55.00;;;;;;5033475;28;20416;-48
2023/02/20 01:10:59;;;;;;;4.77;3.23;;;14.60;54.90;;;;;;5033316;28;20426;-49
2023/02/20 01:13:25;;;;;;;9.33;3.37;;;14.40;55.20;;;;;;5032855;28;20604;-51
2023/02/20 01:15:50;;;;;;;5.10;2.87;;;14.40;55.40;;;;;;5033471;28;20193;-48
2023/02/20 01:18:16;;;;;;;3.37;2.60;;;14.20;55.40;;;;;;5033226;28;20645;-48
2023/02/20 01:20:42;;;;;;;5.17;2.50;;;14.10;56.00;;;;;;5033095;28;20193;-47
2023/02/20 01:23:07;;;;;;;7.80;2.93;;;13.90;56.10;;;;;;5033046;28;20197;-48
2023/02/20 01:25:33;;;;;;;6.20;3.47;;;13.80;56.60;;;;;;5033147;28;20193;-48
2023/02/20 01:27:58;;;;;;;3.97;2.87;;;13.70;56.70;;;;;;5033715;28;20189;-48
2023/02/20 01:30:24;;;;;;;4.73;2.90;;;13.80;56.70;;;;;;5033191;28;20315;-47
2023/02/20 01:32:50;;;;;;;7.70;2.90;;;13.60;56.90;;;;;;5036221;28;20232;-48
2023/02/20 01:35:16;;;;;;;3.33;2.73;;;13.70;56.80;;;;;;5039270;28;20707;-49
2023/02/20 01:37:42;;;;;;;5.13;3.17;;;13.70;56.90;;;;;;5033245;28;20652;-48
2023/02/20 01:40:13;;;;;;;5.00;2.77;;;13.70;56.70;;;;;;5033084;28;20212;-49
2023/02/20 01:42:39;;;;;;;5.70;2.57;;;13.40;56.80;;;;;;5032698;28;20959;-49
2023/02/20 01:45:19;;;;;;;6.60;2.60;;;13.50;57.10;;;;;;5032833;28;20505;-48
2023/02/20 01:47:45;;;;;;;5.80;2.90;;;13.50;56.80;;;;;;5033217;28;20201;-49
2023/02/20 01:50:12;;;;;;;4.83;2.90;;;13.60;56.50;;;;;;5032799;28;20455;-49
2023/02/20 01:52:41;;;;;;;6.37;3.17;;;13.70;56.30;;;;;;5032653;28;20366;-48
2023/02/20 01:55:12;;;;;;;6.80;3.90;;;13.60;56.40;;;;;;5032828;28;20542;-48
2023/02/20 01:57:42;;;;;;;3.27;2.50;;;13.70;56.30;;;;;;5032689;28;20435;-48
2023/02/20 02:00:14;;;;;;;7.73;3.50;;;13.80;56.10;;;;;;5030985;28;20519;-48
2023/02/20 02:02:44;;;;;;;7.40;3.03;;;13.80;56.00;;;;;;5032274;28;20945;-49
2023/02/20 02:05:11;;;;;;;5.40;2.73;;;13.80;55.70;;;;;;5032488;28;20428;-48
2023/02/20 02:07:38;;;;;;;7.80;3.27;;;13.70;55.70;;;;;;5032431;28;20435;-48
2023/02/20 02:10:07;;;;;;;3.87;2.83;;;13.70;55.70;;;;;;5032489;28;20810;-48
2023/02/20 02:12:33;;;;;;;6.30;3.60;;;13.70;55.70;;;;;;5031812;28;20502;-52
2023/02/20 02:14:59;;;;;;;4.67;2.90;;;13.80;55.60;;;;;;5032409;28;20511;-52
2023/02/20 02:17:25;;;;;;;5.23;2.87;;;13.80;55.40;;;;;;5031378;28;20424;-53
2023/02/20 02:19:53;;;;;;;5.70;2.97;;;13.80;55.20;;;;;;5032698;28;20276;-52
2023/02/20 02:22:37;;;;;;;4.83;3.40;;;13.70;55.40;;;;;;5032045;28;20585;-51
2023/02/20 02:25:02;;;;;;;4.93;2.67;;;13.60;55.40;;;;;;5032292;28;20435;-52
2023/02/20 02:28:01;;;;;;;4.50;2.57;;;13.60;55.30;;;;;;5030643;28;20772;-51
2023/02/20 02:30:42;;;;;;;3.80;2.77;;;13.60;55.30;;;;;;5031896;28;20241;-50
2023/02/20 02:33:36;;;;;;;4.37;2.87;;;13.60;55.40;;;;;;5038832;28;20482;-48
2023/02/20 02:36:17;;;;;;;3.50;2.80;;;13.60;55.20;;;;;;5018923;28;20550;-51
2023/02/20 02:39:02;;;;;;;6.43;3.30;;;13.60;55.00;;;;;;5031863;28;20442;-52
2023/02/20 02:41:55;;;;;;;4.97;3.50;;;13.60;55.10;;;;;;5031832;28;20467;-48
2023/02/20 02:44:37;;;;;;;4.97;2.90;;;13.60;55.00;;;;;;5031760;28;20927;-51
2023/02/20 02:47:36;;;;;;;5.70;3.30;;;13.60;54.90;;;;;;5031750;28;20424;-50
2023/02/20 02:50:07;;;;;;;3.77;2.67;;;13.60;55.00;;;;;;5026878;28;20444;-49
2023/02/20 02:52:37;;;;;;;3.33;2.60;;;13.60;54.90;;;;;;5031067;28;20476;-51
2023/02/20 02:55:08;;;;;;;3.27;2.50;;;13.70;54.80;;;;;;5029914;28;20447;-52
2023/02/20 02:57:34;;;;;;;5.53;2.57;;;13.70;54.60;;;;;;5031482;28;20424;-48
2023/02/20 03:00:11;;;;;;;5.10;3.13;;;13.80;54.60;;;;;;5031565;28;20447;-52
2023/02/20 03:02:55;;;;;;;6.23;2.80;;;13.80;54.60;;;;;;5031164;28;20420;-49
2023/02/20 03:05:25;;;;;;;4.33;3.00;;;13.70;54.60;;;;;;5031462;28;20424;-52
2023/02/20 03:07:56;;;;;;;4.83;3.07;;;13.80;54.50;;;;;;5031549;28;20435;-50
2023/02/20 03:10:30;;;;;;;3.20;2.57;;;13.80;54.30;;;;;;5031421;28;20416;-51
2023/02/20 03:13:01;;;;;;;5.97;3.50;;;13.80;54.30;;;;;;5030795;28;21064;-51
2023/02/20 03:15:36;;;;;;;3.80;2.73;;;13.80;54.30;;;;;;5031227;28;20435;-52
2023/02/20 03:18:16;;;;;;;5.07;2.93;;;13.80;54.30;;;;;;5030928;28;20427;-52
2023/02/20 03:20:46;;;;;;;6.50;3.00;;;13.80;54.30;;;;;;5029542;28;20527;-51
2023/02/20 03:23:17;;;;;;;2.77;2.57;;;13.80;54.40;;;;;;5030575;28;20436;-50
2023/02/20 03:26:08;;;;;;;4.47;3.17;;;13.80;54.50;;;;;;5030787;28;20936;-49
2023/02/20 03:28:42;;;;;;;5.87;3.20;;;13.80;54.40;;;;;;5028278;28;20451;-49
2023/02/20 03:31:29;;;;;;;5.67;3.07;;;13.80;54.50;;;;;;5031094;28;20467;-49
2023/02/20 03:45:25;;;;;;;3.80;2.93;;;13.50;55.70;;;;;;5030549;28;20791;-49
2023/02/20 03:47:55;;;;;;;6.53;2.80;;;13.40;55.70;;;;;;5029425;28;20780;-51
2023/02/20 03:53:05;;;;;;;6.23;3.93;;;13.50;55.90;;;;;;5029867;28;20858;-50
2023/02/20 03:55:31;;;;;;;3.97;2.90;;;13.40;55.70;;;;;;5030774;28;20428;-52
2023/02/20 03:58:00;;;;;;;5.27;3.03;;;13.40;56.00;;;;;;5030548;28;20271;-49
2023/02/20 04:00:31;;;;;;;5.33;3.17;;;13.40;56.00;;;;;;5030555;28;20443;-48
2023/02/20 04:03:03;;;;;;;3.93;2.30;;;13.50;56.00;;;;;;5029987;28;20431;-52
2023/02/20 04:05:34;;;;;;;4.90;3.07;;;13.60;55.90;;;;;;5030288;28;20953;-49
2023/02/20 04:08:22;;;;;;;5.10;2.63;;;13.60;55.90;;;;;;5030458;28;20540;-52
2023/02/20 04:11:00;;;;;;;5.47;3.30;;;13.50;55.80;;;;;;5030102;28;20808;-48
2023/02/20 04:13:25;;;;;;;6.20;2.87;;;13.60;55.80;;;;;;5029570;28;20526;-48
2023/02/20 04:15:52;;;;;;;3.63;2.70;;;13.60;55.80;;;;;;5028640;28;20508;-48
2023/02/20 04:18:19;;;;;;;3.17;2.20;;;13.60;55.60;;;;;;5030218;28;20220;-52
2023/02/20 04:20:48;;;;;;;2.73;2.37;;;13.70;55.40;;;;;;5029836;28;20919;-48
2023/02/20 04:23:18;;;;;;;6.80;2.90;;;13.80;55.20;;;;;;5029654;28;20432;-49
2023/02/20 04:25:55;;;;;;;3.60;2.17;;;13.80;55.20;;;;;;5029770;28;21296;-48
2023/02/20 04:28:23;;;;;;;3.40;2.73;;;13.80;55.00;;;;;;5030220;28;20435;-48
2023/02/20 04:30:49;;;;;;;6.03;2.20;;;13.80;54.80;;;;;;5029838;28;20502;-49
2023/02/20 04:33:16;;;;;;;5.13;2.53;;;13.90;54.80;;;;;;5037765;28;20486;-48
2023/02/20 04:35:41;;;;;;;7.93;3.17;;;13.90;54.80;;;;;;5032397;28;20423;-51
2023/02/20 04:38:07;;;;;;;5.73;2.47;;;13.80;54.90;;;;;;5029950;28;20485;-49
2023/02/20 04:40:33;;;;;;;4.30;2.70;;;13.80;55.00;;;;;;5029643;28;21796;-49
2023/02/20 04:42:59;;;;;;;8.73;3.00;;;13.70;55.10;;;;;;5028000;28;21054;-49
2023/02/20 04:45:24;;;;;;;7.33;3.40;;;13.70;55.20;;;;;;5029802;28;20225;-53
2023/02/20 04:47:50;;;;;;;3.90;2.60;;;13.60;55.30;;;;;;5029701;28;20201;-49
2023/02/20 04:50:20;;;;;;;4.13;3.10;;;13.60;55.40;;;;;;5029511;28;20186;-49
2023/02/20 04:52:46;;;;;;;6.43;3.23;;;13.50;55.30;;;;;;5029601;28;20228;-48
2023/02/20 04:55:12;;;;;;;3.33;2.63;;;13.20;55.60;;;;;;5029643;28;20438;-51
2023/02/20 04:57:37;;;;;;;3.50;3.17;;;13.20;55.90;;;;;;5029866;28;20668;-52
2023/02/20 05:00:04;;;;;;;6.70;3.27;;;13.20;55.80;;;;;;5029589;28;20200;-49
2023/02/20 05:02:30;;;;;;;5.20;3.03;;;13.10;56.10;;;;;;5029045;28;20197;-50
2023/02/20 05:04:55;;;;;;;7.07;3.50;;;13.20;56.00;;;;;;5029352;28;20428;-49
2023/02/20 05:07:21;;;;;;;4.20;2.50;;;13.20;55.90;;;;;;5029933;28;20217;-52
2023/02/20 05:09:47;;;;;;;3.50;3.20;;;13.20;55.80;;;;;;5028204;28;20328;-49
2023/02/20 05:12:12;;;;;;;7.20;3.40;;;13.20;55.80;;;;;;5028982;28;20976;-47
2023/02/20 05:14:38;;;;;;;5.67;3.17;;;13.20;55.80;;;;;;5029451;28;20196;-48
2023/02/20 05:17:03;;;;;;;7.27;3.50;;;13.20;55.80;;;;;;5029513;28;20268;-49
2023/02/20 05:19:29;;;;;;;5.50;3.70;;;13.20;56.20;;;;;;5029703;28;20336;-50
2023/02/20 05:24:42;;;;;;;4.23;3.00;;;13.20;55.50;;;;;;5029189;28;20192;-49
2023/02/20 05:27:08;;;;;;;3.13;2.83;;;13.30;55.40;;;;;;5029398;28;20463;-49
2023/02/20 05:29:34;;;;;;;5.03;3.20;;;13.10;55.30;;;;;;5029143;28;20478;-48
2023/02/20 05:32:00;;;;;;;4.53;2.90;;;13.20;55.40;;;;;;5028536;28;20491;-49
2023/02/20 05:34:25;;;;;;;5.73;3.27;;;13.10;55.50;;;;;;5040061;28;20198;-49
2023/02/20 05:36:52;;;;;;;7.77;3.13;;;13.10;55.50;;;;;;5027937;28;20197;-48
2023/02/20 05:39:18;;;;;;;3.80;2.67;;;13.10;55.60;;;;;;5029209;28;20193;-49
2023/02/20 05:41:44;;;;;;;5.40;2.80;;;13.10;55.30;;;;;;5028670;28;20935;-48
2023/02/20 05:44:09;;;;;;;6.87;3.03;;;13.20;55.20;;;;;;5029405;28;20206;-48
2023/02/20 05:46:40;;;;;;;5.23;3.40;;;13.20;55.00;;;;;;5029011;28;20276;-49
2023/02/20 05:49:05;;;;;;;5.60;3.30;;;13.30;54.80;;;;;;5029051;28;20201;-49
2023/02/20 05:51:31;;;;;;;3.77;2.63;;;13.30;54.70;;;;;;5029758;28;20451;-48
2023/02/20 05:53:57;;;;;;;4.40;2.70;;;13.30;54.60;;;;;;5032885;28;20689;-48
2023/02/20 05:56:23;;;;;;;7.07;2.77;;;13.30;54.50;;;;;;5032681;28;20416;-49
2023/02/20 05:58:49;;;;;;;4.53;3.40;;;13.30;54.50;;;;;;5032604;28;20219;-49
2023/02/20 06:01:23;;;;;;;4.07;3.10;;;13.30;54.60;;;;;;5032357;28;20440;-51
2023/02/20 06:03:50;;;;;;;9.90;3.50;;;13.20;54.70;;;;;;5030967;28;20280;-48
2023/02/20 06:06:16;;;;;;;6.20;3.37;;;13.20;54.50;;;;;;5032473;28;20443;-49
2023/02/20 06:08:42;;;;;;;5.80;3.00;;;13.20;54.70;;;;;;5032457;28;20412;-49
2023/02/20 06:11:10;;;;;;;5.27;4.17;;;13.20;54.60;;;;;;5032375;28;20416;-49
2023/02/20 06:13:38;;;;;;;6.67;3.53;;;13.20;54.70;;;;;;5032270;28;20221;-48
2023/02/20 06:16:04;;;;;;;3.90;3.33;;;13.00;54.90;;;;;;5032259;28;20420;-49
2023/02/20 06:18:29;;;;;;;5.87;3.70;;;12.90;55.00;;;;;;5032221;28;20432;-51
2023/02/20 06:20:55;;;;;;;7.40;3.83;;;12.90;55.20;;;;;;5032272;28;20439;-48
2023/02/20 06:23:21;;;;;;;5.20;4.20;;;12.90;55.40;;;;;;5031833;28;20569;-49
2023/02/20 06:25:47;;;;;;;6.00;3.73;;;12.90;55.30;;;;;;5032159;28;20189;-48
2023/02/20 06:28:12;;;;;;;6.03;3.10;;;12.80;55.30;;;;;;5031983;28;20637;-48
2023/02/20 06:30:38;;;;;;;7.03;3.53;;;12.90;55.40;;;;;;5030470;28;20291;-48
2023/02/20 06:33:03;;;;;;;7.20;3.57;;;12.90;55.30;;;;;;5038481;28;20224;-48
2023/02/20 06:35:29;;;;;;;5.63;3.50;;;13.00;55.00;;;;;;5036240;28;20266;-48
2023/02/20 06:37:55;;;;;;;9.70;3.43;;;13.00;54.90;;;;;;5032022;28;20189;-49
2023/02/20 06:40:20;;;;;;;5.67;4.10;;;13.00;54.90;;;;;;5031782;28;20229;-48
2023/02/20 06:42:46;;;;;;;8.80;3.90;;;13.00;55.00;;;;;;5031427;28;20208;-49
2023/02/20 06:45:11;;;;;;;6.30;3.43;;;12.90;54.90;;;;;;5031807;28;20243;-49
2023/02/20 06:47:37;;;;;;;4.30;3.00;;;12.90;55.20;;;;;;5031911;28;20193;-48
2023/02/20 06:50:03;;;;;;;7.63;3.30;;;13.00;55.00;;;;;;5031588;28;20992;-48
2023/02/20 06:52:29;;;;;;;4.17;3.47;;;13.00;54.80;;;;;;5029897;28;20237;-49
2023/02/20 06:54:54;;;;;;;5.67;3.47;;;13.10;54.70;;;;;;5031902;28;20428;-49
2023/02/20 06:57:20;;;;;;;5.00;3.83;;;13.00;54.90;;;;;;5030284;28;20205;-48
2023/02/20 06:59:48;;;;;;;4.73;3.10;;;13.10;54.90;;;;;;5031567;28;20232;-49
2023/02/20 07:02:14;;;;;;;8.33;3.90;;;13.20;54.70;;;;;;5030884;28;20205;-48
2023/02/20 07:04:40;;;;;;;5.87;3.40;;;13.30;54.50;;;;;;5031357;28;20428;-49
2023/02/20 07:07:06;;;;;;;4.40;3.33;;;13.40;54.50;;;;;;5031999;28;20498;-49
2023/02/20 07:09:31;;;;;;;3.70;3.23;;;13.30;54.00;;;;;;5031256;28;20193;-49
2023/02/20 07:11:57;;;;;;;5.17;3.30;;;13.20;54.50;;;;;;5029399;28;20302;-49
2023/02/20 07:14:23;;;;;;;5.00;3.13;;;13.30;54.20;;;;;;5031199;28;20616;-48
2023/02/20 07:16:49;;;;;;;8.13;3.87;;;13.50;54.20;;;;;;5031252;28;20197;-48
2023/02/20 07:19:14;;;;;;;4.40;3.17;;;13.70;53.60;;;;;;5031271;28;20531;-49
2023/02/20 07:21:40;;;;;;;6.03;3.07;;;13.90;53.40;;;;;;5031047;28;20193;-48
2023/02/20 07:24:06;;;;;;;3.87;3.47;;;14.20;52.80;;;;;;5028273;28;20657;-48
2023/02/20 07:26:32;;;;;;;6.10;3.20;;;14.50;52.30;;;;;;5030956;28;20200;-49
2023/02/20 07:28:59;;;;;;;3.90;2.77;;;14.80;51.80;;;;;;5030684;28;20919;-48
2023/02/20 07:31:25;;;;;;;6.63;2.83;;;14.90;51.10;;;;;;5030453;28;20225;-50
2023/02/20 07:33:51;;;;;;;6.73;3.03;;;15.10;51.10;;;;;;5041673;28;20883;-48
2023/02/20 07:36:17;;;;;;;6.77;3.27;;;15.30;50.80;;;;;;5030921;28;20428;-48
2023/02/20 07:38:55;;;;;;;8.50;3.23;;;15.50;50.40;;;;;;5030632;28;20190;-49
2023/02/20 07:41:22;;;;;;;4.80;2.90;;;15.70;49.90;;;;;;5030429;28;20796;-50
2023/02/20 07:43:48;;;;;;;6.80;2.80;;;15.80;49.40;;;;;;5030518;28;20428;-48
2023/02/20 07:46:14;;;;;;;10.43;3.87;;;15.80;48.60;;;;;;5030487;28;20439;-49
2023/02/20 07:48:39;;;;;;;3.87;3.33;;;15.80;48.90;;;;;;5030536;28;20246;-49
2023/02/20 07:51:05;;;;;;;5.37;3.20;;;15.70;48.80;;;;;;5028849;28;20227;-51
2023/02/20 07:53:31;;;;;;;4.20;2.73;;;15.70;49.10;;;;;;5030192;28;20315;-49
2023/02/20 07:55:56;;;;;;;4.97;3.10;;;15.40;49.00;;;;;;5030707;28;20200;-48
2023/02/20 07:58:22;;;;;;;4.70;2.97;;;15.40;49.50;;;;;;5030543;28;20189;-49
2023/02/20 08:00:50;;;;;;;15.33;3.57;;;15.50;49.50;;;;;;5030202;28;20197;-50
2023/02/20 08:03:16;;;;;;;11.93;3.27;;;15.60;49.30;;;;;;5029785;28;20219;-48
2023/02/20 08:05:42;;;;;;;3.53;3.13;;;15.70;49.00;;;;;;5030292;28;20444;-48
2023/02/20 08:08:08;;;;;;;4.73;3.37;;;15.70;48.90;;;;;;5030241;28;20788;-49
2023/02/20 08:10:34;;;;;;;3.90;2.50;;;15.70;48.80;;;;;;5030345;28;20436;-48
2023/02/20 08:13:01;;;;;;;4.47;2.77;;;15.60;49.10;;;;;;5029639;28;20546;-48
2023/02/20 08:15:27;;;;;;;3.90;2.90;;;15.60;49.10;;;;;;5029264;28;20679;-48
2023/02/20 08:17:52;;;;;;;6.03;3.20;;;15.50;49.20;;;;;;5028532;28;20435;-49
2023/02/20 08:20:20;;;;;;;5.33;3.20;;;15.60;49.10;;;;;;5030147;28;20419;-49
2023/02/20 08:22:48;;;;;;;6.27;3.10;;;15.60;49.20;;;;;;5029640;28;20685;-49
2023/02/20 08:25:15;;;;;;;5.80;2.97;;;15.60;49.10;;;;;;5030027;28;20447;-48
2023/02/20 08:27:47;;;;;;;3.93;2.77;;;15.50;49.00;;;;;;5029782;28;20424;-49
2023/02/20 08:30:16;;;;;;;4.90;2.57;;;15.50;49.00;;;;;;5029578;28;20467;-48
2023/02/20 08:32:41;;;;;;;6.50;2.70;;;15.30;48.80;;;;;;5032770;28;20479;-49
2023/02/20 08:35:08;;;;;;;6.40;3.00;;;15.00;49.40;;;;;;5036863;28;20452;-50
2023/02/20 08:37:34;;;;;;;4.07;2.80;;;14.80;49.80;;;;;;5029727;28;20470;-48
2023/02/20 08:40:05;;;;;;;4.90;2.83;;;15.00;50.00;;;;;;5029689;28;20205;-50
2023/02/20 08:42:31;;;;;;;6.67;3.47;;;14.70;49.90;;;;;;5029340;28;20244;-48
2023/02/20 08:44:56;;;;;;;7.40;3.07;;;14.60;50.20;;;;;;5028029;28;20436;-49
2023/02/20 08:47:22;;;;;;;5.03;2.90;;;14.60;50.40;;;;;;5029952;28;20196;-49
2023/02/20 08:49:48;;;;;;;12.70;3.30;;;14.70;50.20;;;;;;5029751;28;20203;-49
2023/02/20 08:52:14;;;;;;;6.97;2.93;;;14.70;50.20;;;;;;5029392;28;20509;-48
2023/02/20 08:54:39;;;;;;;6.77;3.27;;;14.60;50.30;;;;;;5029883;28;20225;-48
2023/02/20 08:57:05;;;;;;;3.90;2.90;;;14.60;50.50;;;;;;5029498;28;20471;-50
2023/02/20 08:59:31;;;;;;;3.80;2.83;;;14.70;50.60;;;;;;5029464;28;20189;-48
2023/02/20 09:01:57;;;;;;;6.83;3.23;;;14.60;50.30;;;;;;5029086;28;20649;-48
2023/02/20 09:04:23;;;;;;;2.60;2.40;;;14.40;50.10;;;;;;5029732;28;20420;-49
2023/02/20 09:06:48;;;;;;;5.20;2.67;;;14.30;50.60;;;;;;5029481;28;20595;-48
2023/02/20 09:09:14;;;;;;;5.00;2.50;;;14.30;50.70;;;;;;5029462;28;20761;-48
2023/02/20 09:11:40;;;;;;;7.93;2.77;;;14.40;50.10;;;;;;5027446;28;20209;-50
2023/02/20 09:14:05;;;;;;;5.77;2.63;;;14.80;50.70;;;;;;5029936;28;20235;-50
2023/02/20 09:16:31;;;;;;;6.57;2.23;;;14.90;49.40;;;;;;5029316;28;20247;-49
2023/02/20 09:18:57;;;;;;;5.30;2.50;;;15.10;49.00;;;;;;5029416;28;20201;-49
2023/02/20 09:21:22;;;;;;;4.40;2.57;;;15.20;48.60;;;;;;5028926;28;20436;-48
2023/02/20 09:23:48;;;;;;;4.67;2.77;;;15.30;48.10;;;;;;5029292;28;20196;-49
2023/02/20 09:26:13;;;;;;;4.40;2.63;;;15.40;47.80;;;;;;5031763;28;20209;-48
2023/02/20 09:28:39;;;;;;;4.53;2.30;;;15.40;48.30;;;;;;5033605;28;20193;-49
2023/02/20 09:31:05;;;;;;;6.27;3.23;;;15.70;48.00;;;;;;5032658;28;20232;-49
2023/02/20 09:33:31;;;;;;;4.40;2.37;;;15.90;47.90;;;;;;5043612;28;20306;-48
2023/02/20 09:35:56;;;;;;;3.37;2.40;;;15.90;47.20;;;;;;5033598;28;20519;-49
2023/02/20 09:38:25;;;;;;;4.80;2.57;;;15.90;46.90;;;;;;5032006;28;20201;-49
2023/02/20 09:40:55;;;;;;;3.70;3.03;;;15.90;47.20;;;;;;5033373;28;20197;-48
2023/02/20 09:43:33;;;;;;;7.83;3.03;;;16.00;46.80;;;;;;5033200;28;20428;-49
2023/02/20 09:46:18;;;;;;;3.30;2.07;;;16.10;46.50;;;;;;5033197;28;20432;-48
2023/02/20 09:48:44;;;;;;;3.20;2.17;;;16.30;46.00;;;;;;5032704;28;20435;-49
2023/02/20 09:51:14;;;;;;;4.00;2.60;;;16.50;46.20;;;;;;5032603;28;20443;-49
2023/02/20 09:53:59;;;;;;;4.97;2.60;;;16.50;45.80;;;;;;5033073;28;20228;-49
2023/02/20 09:56:29;;;;;;;4.93;2.37;;;16.70;45.70;;;;;;5032575;28;20440;-49
2023/02/20 09:59:06;;;;;;;2.93;2.60;;;16.70;44.70;;;;;;5032682;28;20992;-50
2023/02/20 10:01:34;;;;;;;3.53;2.30;;;16.70;45.20;;;;;;5032192;28;20503;-48
2023/02/20 10:04:20;;;;;;;4.00;3.23;;;16.90;45.20;;;;;;5032185;28;20454;-49
2023/02/20 10:06:46;;;;;;;3.80;2.47;;;17.00;44.90;;;;;;5032465;28;20451;-48
2023/02/20 10:09:14;;;;;;;4.30;2.20;;;17.00;44.20;;;;;;5032595;28;20420;-48
2023/02/20 10:12:18;;;;;;;5.33;2.63;;;17.20;44.50;;;;;;5031938;28;20996;-50
2023/02/20 10:15:04;;;;;;;4.40;3.00;;;17.00;44.10;;;;;;5032335;28;20943;-48
2023/02/20 10:17:45;;;;;;;4.67;2.47;;;16.90;44.60;;;;;;5032406;28;20448;-51
2023/02/20 10:20:24;;;;;;;2.73;2.50;;;16.90;44.60;;;;;;5032516;28;20435;-48
2023/02/20 10:23:36;;;;;;;5.23;2.37;;;16.90;44.70;;;;;;5031953;28;20839;-49
2023/02/20 10:26:07;;;;;;;5.23;2.43;;;17.30;44.70;;;;;;5020988;28;20527;-48
2023/02/20 10:28:33;;;;;;;5.90;2.50;;;17.70;44.20;;;;;;5032123;28;20828;-48
2023/02/20 10:31:20;;;;;;;5.37;2.07;;;17.80;43.40;;;;;;5030665;28;20468;-53
2023/02/20 10:33:55;;;;;;;3.30;1.90;;;17.90;43.10;;;;;;5042934;28;20842;-48
2023/02/20 10:36:39;;;;;;;4.97;2.27;;;18.10;42.90;;;;;;5031927;28;20431;-50
2023/02/20 10:39:14;;;;;;;3.87;2.40;;;18.10;42.80;;;;;;5032203;28;20439;-51
2023/02/20 10:41:50;;;;;;;4.30;2.53;;;18.00;42.50;;;;;;5031487;28;20428;-52
2023/02/20 10:44:25;;;;;;;4.53;2.40;;;17.80;42.70;;;;;;5031960;28;20521;-50
2023/02/20 10:46:58;;;;;;;5.00;2.47;;;18.00;42.80;;;;;;5030846;28;20955;-52
2023/02/20 10:49:42;;;;;;;5.63;2.20;;;18.20;42.90;;;;;;5030765;28;20912;-52
2023/02/20 10:52:19;;;;;;;3.57;1.97;;;18.30;42.30;;;;;;5031179;28;20819;-52
2023/02/20 10:54:50;;;;;;;4.60;2.60;;;18.40;42.40;;;;;;5031669;28;21050;-52
2023/02/20 10:57:24;;;;;;;5.23;1.93;;;18.50;42.00;;;;;;5031706;28;20439;-52
2023/02/20 11:00:16;;;;;;;5.67;2.57;;;18.70;42.00;;;;;;5030247;28;20481;-52
2023/02/20 11:03:05;;;;;;;2.00;1.73;;;18.90;41.70;;;;;;5031125;28;21032;-52
2023/02/20 11:05:36;;;;;;;5.40;2.00;;;19.10;41.40;;;;;;5031595;28;20433;-52
2023/02/20 11:08:02;;;;;;;3.30;1.80;;;19.30;40.80;;;;;;5030168;28;20439;-52
2023/02/20 11:10:29;;;;;;;2.53;2.20;;;19.40;40.30;;;;;;5031212;28;20804;-51
2023/02/20 11:12:59;;;;;;;2.60;1.90;;;19.50;40.20;;;;;;5030785;28;20225;-53
2023/02/20 11:15:27;;;;;;;5.03;2.50;;;19.80;40.00;;;;;;5031422;28;20440;-53
2023/02/20 11:17:56;;;;;;;6.13;2.50;;;19.80;40.00;;;;;;5030022;28;20436;-53
2023/02/20 11:20:48;;;;;;;3.23;2.10;;;19.80;39.70;;;;;;5031232;28;20547;-50
2023/02/20 11:23:43;;;;;;;2.83;2.23;;;19.80;39.40;;;;;;5030034;28;20509;-52
2023/02/20 11:26:24;;;;;;;2.77;2.00;;;20.00;39.90;;;;;;5029610;28;20875;-54
2023/02/20 11:28:58;;;;;;;4.40;2.30;;;20.10;39.80;;;;;;5031058;28;20451;-53
2023/02/20 11:31:24;;;;;;;5.57;2.50;;;20.30;39.90;;;;;;5030915;28;20490;-52
2023/02/20 11:33:53;;;;;;;3.40;2.07;;;20.40;39.40;;;;;;5041024;28;20892;-53
2023/02/20 11:36:24;;;;;;;4.07;2.00;;;20.50;39.30;;;;;;5031181;28;20424;-50
2023/02/20 11:38:59;;;;;;;4.23;1.90;;;20.70;38.90;;;;;;5030907;28;20498;-52
2023/02/20 11:41:37;;;;;;;3.50;1.50;;;20.70;37.80;;;;;;5030334;28;20485;-54
2023/02/20 11:44:23;;;;;;;3.03;1.70;;;20.60;37.90;;;;;;5030554;28;20440;-52
2023/02/20 11:47:19;;;;;;;2.70;1.90;;;20.40;38.10;;;;;;5030726;28;20443;-53
2023/02/20 11:49:45;;;;;;;5.60;2.20;;;20.20;38.10;;;;;;5029812;28;20432;-50
2023/02/20 11:52:20;;;;;;;2.90;1.83;;;20.00;38.30;;;;;;5028392;28;20546;-50
2023/02/20 11:55:05;;;;;;;2.70;2.03;;;20.10;38.70;;;;;;5030596;28;20195;-52
2023/02/20 11:57:31;;;;;;;4.93;1.50;;;19.90;38.30;;;;;;5030696;28;20795;-51
2023/02/20 12:00:21;;;;;;;3.87;2.20;;;19.80;38.50;;;;;;5030340;28;20439;-53
2023/02/20 12:02:53;;;;;;;3.73;2.10;;;19.80;38.70;;;;;;5029871;28;20593;-52
2023/02/20 12:05:20;;;;;;;5.80;2.43;;;19.60;38.90;;;;;;5030330;28;20570;-51
2023/02/20 12:07:52;;;;;;;8.03;2.63;;;19.80;39.60;;;;;;5030317;28;20832;-53
2023/02/20 12:10:41;;;;;;;5.03;1.83;;;20.00;38.80;;;;;;5030464;28;20440;-49
2023/02/20 12:13:13;;;;;;;3.13;2.47;;;19.90;38.30;;;;;;5030151;28;20483;-52
2023/02/20 12:15:39;;;;;;;3.70;2.10;;;20.00;38.50;;;;;;5030327;28;20494;-52
2023/02/20 12:18:13;;;;;;;7.17;1.90;;;20.20;38.40;;;;;;5030423;28;20424;-53
2023/02/20 12:20:47;;;;;;;4.57;1.80;;;20.50;38.50;;;;;;5028315;28;20196;-52
2023/02/20 12:23:26;;;;;;;4.03;2.00;;;20.80;37.80;;;;;;5030262;28;20428;-49
2023/02/20 12:26:20;;;;;;;2.83;1.60;;;20.80;37.30;;;;;;5028765;28;20444;-52
2023/02/20 12:28:54;;;;;;;2.60;1.50;;;20.90;37.50;;;;;;5029881;28;20795;-50
2023/02/20 12:31:43;;;;;;;3.37;2.03;;;20.90;37.00;;;;;;5029434;28;20570;-52
2023/02/20 12:34:25;;;;;;;3.73;1.77;;;21.10;37.00;;;;;;5040749;28;20480;-49
2023/02/20 12:37:24;;;;;;;1.97;1.57;;;20.90;36.70;;;;;;5030102;28;20424;-52
2023/02/20 12:40:09;;;;;;;2.53;1.50;;;20.90;36.70;;;;;;5029825;28;20447;-50
2023/02/20 12:42:52;;;;;;;2.53;1.70;;;21.00;36.90;;;;;;5029601;28;20489;-52
2023/02/20 12:45:29;;;;;;;3.83;1.83;;;20.90;36.70;;;;;;5029933;28;20879;-50
2023/02/20 12:48:16;;;;;;;3.97;1.60;;;21.00;36.50;;;;;;5028800;28;20511;-51
2023/02/20 12:51:10;;;;;;;1.80;1.40;;;21.10;36.30;;;;;;5029301;28;20456;-53
2023/02/20 12:53:52;;;;;;;3.50;1.47;;;21.00;36.30;;;;;;5029593;28;20878;-49
2023/02/20 12:56:37;;;;;;;3.53;1.87;;;21.20;36.30;;;;;;5029764;28;20420;-49
2023/02/20 12:59:39;;;;;;;2.50;1.73;;;21.30;35.90;;;;;;5029696;28;20478;-50
2023/02/20 13:02:28;;;;;;;2.80;1.77;;;21.40;36.00;;;;;;5026396;28;20462;-53
2023/02/20 13:04:57;;;;;;;2.83;1.40;;;21.70;36.30;;;;;;5033950;28;20487;-51
2023/02/20 13:07:28;;;;;;;2.80;1.50;;;21.80;35.80;;;;;;5033803;28;20440;-50
2023/02/20 13:10:11;;;;;;;3.60;2.03;;;21.90;35.50;;;;;;5033825;28;20427;-52
2023/02/20 13:12:37;;;;;;;2.30;1.70;;;21.90;35.60;;;;;;5032072;28;20475;-49
2023/02/20 13:15:11;;;;;;;3.70;1.70;;;22.00;35.30;;;;;;5033168;28;20915;-49
2023/02/20 13:17:40;;;;;;;4.87;2.20;;;22.00;35.40;;;;;;5033442;28;20246;-49
2023/02/20 13:20:23;;;;;;;6.50;1.80;;;21.90;35.50;;;;;;5033567;28;20442;-49